« Back
NWS Peachtree City, Ga » Text Product » CSG Terminal Aerodrome Forecast


Printer-friendly Version
Current Version              Previous Versions:   1  2  3  4  5  6  7  8  9  

Terminal Aerodrome Forecast

845
FTUS42 KFFC 041741
TAFCSG
TAF
KCSG 041741Z 0418/0518 33010G17KT P6SM SCT060
     FM050200 23006KT P6SM VCSH BKN060
     FM050900 30008KT P6SM SCT060
     FM051500 31012G20KT P6SM BKN060=



USA.gov is the U.S. government's official web portal to all federal, state and local government web resources and services.